createdAt,value
2022-10-28T04:30:41.809Z,1003.37
2022-10-28T04:31:41.792Z,1003.34
2022-10-28T04:32:41.774Z,1003.31
2022-10-28T04:33:41.751Z,1003.39
2022-10-28T04:34:41.719Z,1003.40
2022-10-28T04:35:41.741Z,1003.36
2022-10-28T04:36:41.698Z,1003.35
2022-10-28T04:37:41.690Z,1003.33
2022-10-28T04:38:41.702Z,1003.32
2022-10-28T04:39:41.680Z,1003.34
2022-10-28T04:40:41.659Z,1003.26
2022-10-28T04:41:41.648Z,1003.31
2022-10-28T04:42:41.650Z,1003.29
2022-10-28T04:43:41.633Z,1003.24
2022-10-28T04:44:41.613Z,1003.15
2022-10-28T04:45:41.607Z,1003.17
2022-10-28T04:46:41.605Z,1003.20
2022-10-28T04:47:41.585Z,1003.21
2022-10-28T04:48:41.585Z,1003.20
2022-10-28T04:49:41.559Z,1003.21
2022-10-28T04:50:41.566Z,1003.25
2022-10-28T04:51:41.576Z,1003.20
2022-10-28T04:52:41.548Z,1003.18
2022-10-28T04:53:41.515Z,1003.27
2022-10-28T04:54:41.521Z,1003.22
2022-10-28T04:55:41.491Z,1003.24
2022-10-28T04:56:41.501Z,1003.28
2022-10-28T04:57:41.475Z,1003.36
2022-10-28T04:58:41.464Z,1003.36
2022-10-28T04:59:41.450Z,1003.39
2022-10-28T05:00:41.436Z,1003.46
2022-10-28T05:01:41.560Z,1003.46
2022-10-28T05:02:45.270Z,1003.48
2022-10-28T05:03:41.396Z,1003.44
2022-10-28T05:04:41.401Z,1003.51
2022-10-28T05:05:41.375Z,1003.51
2022-10-28T05:06:41.360Z,1003.51
2022-10-28T05:07:41.373Z,1003.50
2022-10-28T05:08:41.346Z,1003.55
2022-10-28T05:09:41.375Z,1003.55
2022-10-28T05:10:41.323Z,1003.58
2022-10-28T05:11:41.318Z,1003.60
2022-10-28T05:12:41.306Z,1003.64
2022-10-28T05:13:41.290Z,1003.65
2022-10-28T05:14:41.272Z,1003.68
2022-10-28T05:15:41.264Z,1003.72
2022-10-28T05:16:41.254Z,1003.71
2022-10-28T05:17:41.257Z,1003.69
2022-10-28T05:18:41.276Z,1003.67
2022-10-28T05:19:41.259Z,1003.65
2022-10-28T05:20:41.282Z,1003.69
2022-10-28T05:21:41.200Z,1003.63
2022-10-28T05:22:41.213Z,1003.65
2022-10-28T05:23:41.310Z,1003.63
2022-10-28T05:24:41.177Z,1003.62
2022-10-28T05:25:41.157Z,1003.54
2022-10-28T05:26:41.147Z,1003.53
2022-10-28T05:27:41.179Z,1003.56
2022-10-28T05:28:41.153Z,1003.58
2022-10-28T05:29:41.130Z,1003.46
2022-10-28T05:30:41.113Z,1003.54
2022-10-28T05:31:41.090Z,1003.50
2022-10-28T05:32:41.075Z,1003.48
2022-10-28T05:33:41.069Z,1003.49
2022-10-28T05:34:41.117Z,1003.51
2022-10-28T05:35:41.049Z,1003.49
2022-10-28T05:36:41.039Z,1003.49
2022-10-28T05:37:41.029Z,1003.47
2022-10-28T05:38:41.034Z,1003.51
2022-10-28T05:39:41.016Z,1003.42
2022-10-28T05:40:40.993Z,1003.44
2022-10-28T05:41:40.990Z,1003.42
2022-10-28T05:42:40.966Z,1003.42
2022-10-28T05:43:40.960Z,1003.45
2022-10-28T05:44:40.983Z,1003.47
2022-10-28T05:45:40.933Z,1003.49
2022-10-28T05:46:40.939Z,1003.48
2022-10-28T05:47:40.917Z,1003.42
2022-10-28T05:48:40.903Z,1003.44
2022-10-28T05:49:40.896Z,1003.45
2022-10-28T05:50:40.917Z,1003.45
2022-10-28T05:51:40.891Z,1003.50
2022-10-28T05:52:40.864Z,1003.46
2022-10-28T05:53:40.870Z,1003.49
2022-10-28T05:54:40.840Z,1003.47
2022-10-28T05:55:45.137Z,1003.48
2022-10-28T05:56:40.819Z,1003.42
2022-10-28T05:57:40.808Z,1003.36
2022-10-28T05:58:40.860Z,1003.37
2022-10-28T05:59:40.797Z,1003.44
2022-10-28T06:00:40.773Z,1003.45
2022-10-28T06:01:40.878Z,1003.40
2022-10-28T06:02:40.751Z,1003.38
2022-10-28T06:03:40.814Z,1003.36
2022-10-28T06:04:40.742Z,1003.39
2022-10-28T06:05:40.731Z,1003.41
2022-10-28T06:06:40.740Z,1003.43
2022-10-28T06:07:40.729Z,1003.43
2022-10-28T06:08:40.698Z,1003.40
2022-10-28T06:09:40.687Z,1003.43
2022-10-28T06:10:40.670Z,1003.42
2022-10-28T06:11:39.149Z,1003.44
2022-10-28T06:12:39.108Z,1003.43
2022-10-28T06:13:39.100Z,1003.44
2022-10-28T06:14:39.096Z,1003.44
2022-10-28T06:15:39.088Z,1003.43
2022-10-28T06:16:39.101Z,1003.45
2022-10-28T06:17:39.065Z,1003.48
2022-10-28T06:18:39.067Z,1003.50
2022-10-28T06:19:39.068Z,1003.43
2022-10-28T06:20:39.015Z,1003.48
2022-10-28T06:21:39.016Z,1003.45
2022-10-28T06:22:39.024Z,1003.52
2022-10-28T06:23:39.016Z,1003.46
2022-10-28T06:24:39.010Z,1003.49
2022-10-28T06:25:38.977Z,1003.49
2022-10-28T06:26:38.963Z,1003.54
2022-10-28T06:27:38.955Z,1003.54
2022-10-28T06:28:38.979Z,1003.53
2022-10-28T06:29:38.936Z,1003.57
2022-10-28T06:30:38.919Z,1003.57
2022-10-28T06:31:38.911Z,1003.55
2022-10-28T06:32:38.973Z,1003.57
2022-10-28T06:33:38.895Z,1003.57
2022-10-28T06:34:38.922Z,1003.61
2022-10-28T06:35:38.918Z,1003.62
2022-10-28T06:36:38.885Z,1003.60
2022-10-28T06:37:38.867Z,1003.67
2022-10-28T06:38:38.865Z,1003.66
2022-10-28T06:39:38.881Z,1003.67
2022-10-28T06:40:38.846Z,1003.64
2022-10-28T06:41:38.812Z,1003.65
2022-10-28T06:42:38.797Z,1003.65
2022-10-28T06:43:38.797Z,1003.65
2022-10-28T06:44:38.797Z,1003.72
2022-10-28T06:45:38.797Z,1003.68
2022-10-28T06:46:40.289Z,1003.75
2022-10-28T06:47:41.586Z,1003.70
2022-10-28T06:48:40.268Z,1003.76
2022-10-28T06:49:40.255Z,1003.76
2022-10-28T06:50:40.234Z,1003.73
2022-10-28T06:51:40.248Z,1003.76
2022-10-28T06:52:40.309Z,1003.76
2022-10-28T06:53:40.206Z,1003.71
2022-10-28T06:54:40.197Z,1003.73
2022-10-28T06:55:40.214Z,1003.78
2022-10-28T06:56:40.191Z,1003.71
2022-10-28T06:57:40.165Z,1003.68
2022-10-28T06:58:40.166Z,1003.72
2022-10-28T06:59:40.144Z,1003.66
2022-10-28T07:00:40.144Z,1003.73
2022-10-28T07:01:40.237Z,1003.71
2022-10-28T07:02:42.857Z,1003.72
2022-10-28T07:03:41.107Z,1003.74
2022-10-28T07:04:40.094Z,1003.80
2022-10-28T07:05:40.101Z,1003.73
2022-10-28T07:06:40.098Z,1003.77
2022-10-28T07:07:40.067Z,1003.79
2022-10-28T07:08:40.064Z,1003.82
2022-10-28T07:09:40.059Z,1003.80
2022-10-28T07:10:40.025Z,1003.78
2022-10-28T07:11:40.028Z,1003.78
2022-10-28T07:12:40.018Z,1003.78
2022-10-28T07:13:40.002Z,1003.80
2022-10-28T07:14:40.032Z,1003.85
2022-10-28T07:15:39.989Z,1003.86
2022-10-28T07:16:39.978Z,1003.87
2022-10-28T07:17:39.975Z,1003.87
2022-10-28T07:18:39.950Z,1003.89
2022-10-28T07:19:40.084Z,1003.88
2022-10-28T07:20:39.950Z,1003.92
2022-10-28T07:21:39.919Z,1003.89
2022-10-28T07:22:39.922Z,1003.92
2022-10-28T07:23:39.912Z,1003.90
2022-10-28T07:24:39.893Z,1003.95
2022-10-28T07:25:39.902Z,1003.96
2022-10-28T07:26:39.887Z,1003.96
2022-10-28T07:27:39.919Z,1003.90
2022-10-28T07:28:39.879Z,1003.93
2022-10-28T07:29:39.848Z,1003.92
2022-10-28T07:30:39.826Z,1003.99
2022-10-28T07:31:39.824Z,1003.93
2022-10-28T07:32:39.818Z,1003.99
2022-10-28T07:33:39.818Z,1004.02
2022-10-28T07:34:39.783Z,1004.01
2022-10-28T07:35:39.784Z,1004.02
2022-10-28T07:36:39.774Z,1004.02
2022-10-28T07:37:39.773Z,1004.01
2022-10-28T07:38:39.762Z,1004.03
2022-10-28T07:39:39.759Z,1004.01
2022-10-28T07:40:39.744Z,1004.01
2022-10-28T07:41:39.747Z,1004.03
2022-10-28T07:42:39.793Z,1004.06
2022-10-28T07:43:39.716Z,1004.07
2022-10-28T07:44:39.680Z,1004.10
2022-10-28T07:45:39.663Z,1004.16
2022-10-28T07:46:39.709Z,1004.15
2022-10-28T07:47:39.696Z,1004.19
2022-10-28T07:48:39.638Z,1004.17
2022-10-28T07:49:39.642Z,1004.16
2022-10-28T07:50:39.604Z,1004.14
2022-10-28T07:51:39.614Z,1004.19
2022-10-28T07:52:39.604Z,1004.22
2022-10-28T07:53:39.596Z,1004.18
2022-10-28T07:54:39.560Z,1004.22
2022-10-28T07:55:39.566Z,1004.23
2022-10-28T07:56:39.536Z,1004.22
2022-10-28T07:57:39.533Z,1004.18
2022-10-28T07:58:39.549Z,1004.15
2022-10-28T07:59:39.519Z,1004.20
2022-10-28T08:00:39.556Z,1004.16
2022-10-28T08:01:39.618Z,1004.21
2022-10-28T08:02:39.470Z,1004.18
2022-10-28T08:03:39.508Z,1004.16
2022-10-28T08:04:39.450Z,1004.15
2022-10-28T08:05:39.471Z,1004.21
2022-10-28T08:06:39.413Z,1004.25
2022-10-28T08:07:39.426Z,1004.16
2022-10-28T08:08:39.421Z,1004.13
2022-10-28T08:09:39.390Z,1004.15
2022-10-28T08:10:39.383Z,1004.12
2022-10-28T08:11:39.367Z,1004.13
2022-10-28T08:12:39.336Z,1004.12
2022-10-28T08:13:40.336Z,1004.12
2022-10-28T08:14:39.340Z,1004.13
2022-10-28T08:15:39.324Z,1004.14
2022-10-28T08:16:39.318Z,1004.17
2022-10-28T08:17:39.303Z,1004.17
2022-10-28T08:18:39.279Z,1004.15
2022-10-28T08:19:39.253Z,1004.15
2022-10-28T08:20:39.252Z,1004.17
2022-10-28T08:21:39.255Z,1004.14
2022-10-28T08:22:39.251Z,1004.10
2022-10-28T08:23:39.212Z,1004.16
2022-10-28T08:24:39.196Z,1004.11
2022-10-28T08:25:39.186Z,1004.14
2022-10-28T08:26:39.171Z,1004.13
2022-10-28T08:27:39.197Z,1004.15
2022-10-28T08:28:39.172Z,1004.14
2022-10-28T08:29:39.138Z,1004.06
2022-10-28T08:30:56.698Z,1004.07
2022-10-28T08:31:40.138Z,1004.05
2022-10-28T08:32:39.132Z,1004.04
2022-10-28T08:33:39.113Z,1004.08
2022-10-28T08:34:42.482Z,1004.12
2022-10-28T08:35:39.091Z,1004.07
2022-10-28T08:36:39.063Z,1004.01
2022-10-28T08:37:39.072Z,1004.05
2022-10-28T08:38:44.312Z,1004.08
2022-10-28T08:39:40.050Z,1004.12
2022-10-28T08:40:39.019Z,1004.08
2022-10-28T08:41:39.025Z,1004.08
2022-10-28T08:42:38.996Z,1004.05
2022-10-28T08:43:52.869Z,1004.02
2022-10-28T08:44:39.977Z,1004.02
2022-10-28T08:45:38.979Z,1003.98
2022-10-28T08:46:38.984Z,1003.98
2022-10-28T08:47:38.976Z,1003.95
2022-10-28T08:48:38.936Z,1003.95
2022-10-28T08:49:38.940Z,1004.02
2022-10-28T08:50:38.909Z,1003.97
2022-10-28T08:51:38.938Z,1004.01
2022-10-28T08:52:38.883Z,1003.93
2022-10-28T08:53:38.878Z,1003.96
2022-10-28T08:54:38.860Z,1003.93
2022-10-28T08:55:38.872Z,1003.86
2022-10-28T08:56:38.877Z,1003.94
2022-10-28T08:57:38.874Z,1003.95
2022-10-28T08:58:38.841Z,1003.96
2022-10-28T08:59:38.809Z,1004.03
2022-10-28T09:00:38.801Z,1003.95
2022-10-28T09:01:38.919Z,1003.97
2022-10-28T09:02:38.783Z,1003.97
2022-10-28T09:03:39.299Z,1003.94
2022-10-28T09:04:38.754Z,1003.91
2022-10-28T09:05:38.749Z,1003.96
2022-10-28T09:06:38.753Z,1003.98
2022-10-28T09:07:38.755Z,1003.99
2022-10-28T09:08:38.709Z,1003.99
2022-10-28T09:09:38.723Z,1003.97
2022-10-28T09:10:38.688Z,1003.96
2022-10-28T09:11:38.701Z,1003.99
2022-10-28T09:12:38.684Z,1003.91
2022-10-28T09:13:38.658Z,1003.87
2022-10-28T09:14:38.659Z,1003.93
2022-10-28T09:15:38.652Z,1003.88
2022-10-28T09:16:38.630Z,1003.83
2022-10-28T09:17:38.646Z,1003.89
2022-10-28T09:18:38.619Z,1003.88
2022-10-28T09:19:38.611Z,1003.92
2022-10-28T09:20:38.605Z,1003.91
2022-10-28T09:21:38.620Z,1004.00
2022-10-28T09:22:38.570Z,1004.02
2022-10-28T09:23:38.560Z,1004.02
2022-10-28T09:24:38.547Z,1003.96
2022-10-28T09:25:38.529Z,1004.08
2022-10-28T09:26:38.516Z,1004.06
2022-10-28T09:27:38.540Z,1004.05
2022-10-28T09:28:38.497Z,1004.06
2022-10-28T09:29:41.811Z,1004.03
2022-10-28T09:30:39.477Z,1004.02
2022-10-28T09:31:38.482Z,1004.09
2022-10-28T09:32:38.479Z,1004.10
2022-10-28T09:33:38.459Z,1004.11
2022-10-28T09:34:38.436Z,1004.08
2022-10-28T09:35:38.435Z,1004.06
2022-10-28T09:36:38.413Z,1004.04
2022-10-28T09:37:38.404Z,1003.99
2022-10-28T09:38:38.415Z,1004.02
2022-10-28T09:39:38.391Z,1004.04
2022-10-28T09:40:38.375Z,1004.05
2022-10-28T09:41:38.352Z,1004.07
2022-10-28T09:42:38.343Z,1004.09
2022-10-28T09:43:38.346Z,1004.07
2022-10-28T09:44:38.343Z,1004.19
2022-10-28T09:45:38.323Z,1004.15
2022-10-28T09:46:38.310Z,1004.15
2022-10-28T09:47:38.295Z,1004.12
2022-10-28T09:48:38.276Z,1004.15
2022-10-28T09:49:38.285Z,1004.20
2022-10-28T09:50:38.251Z,1004.15
2022-10-28T09:51:38.265Z,1004.15
2022-10-28T09:52:38.275Z,1004.17
2022-10-28T09:53:38.226Z,1004.11
2022-10-28T09:54:38.218Z,1004.13
2022-10-28T09:55:38.202Z,1004.12
2022-10-28T09:56:38.216Z,1004.14
2022-10-28T09:57:38.177Z,1004.15
2022-10-28T09:58:38.194Z,1004.15
2022-10-28T09:59:38.156Z,1004.21
2022-10-28T10:00:38.170Z,1004.15
2022-10-28T10:01:38.218Z,1004.22
2022-10-28T10:02:38.275Z,1004.22
2022-10-28T10:03:38.133Z,1004.20
2022-10-28T10:04:38.117Z,1004.21
2022-10-28T10:05:38.086Z,1004.22
2022-10-28T10:06:38.098Z,1004.23
2022-10-28T10:07:38.103Z,1004.25
2022-10-28T10:08:38.084Z,1004.26
2022-10-28T10:09:38.059Z,1004.17
2022-10-28T10:10:38.058Z,1004.22
2022-10-28T10:11:38.025Z,1004.13
2022-10-28T10:12:38.011Z,1004.15
2022-10-28T10:13:38.016Z,1004.12
2022-10-28T10:14:37.996Z,1004.12
2022-10-28T10:15:37.998Z,1004.16
2022-10-28T10:16:37.986Z,1004.13
2022-10-28T10:17:37.956Z,1004.14
2022-10-28T10:18:37.971Z,1004.04
2022-10-28T10:19:37.940Z,1004.14
2022-10-28T10:20:37.925Z,1004.13
2022-10-28T10:21:37.913Z,1004.11
2022-10-28T10:22:37.924Z,1004.08
2022-10-28T10:24:37.912Z,1004.10
2022-10-28T10:25:37.882Z,1004.09
2022-10-28T10:26:37.861Z,1004.08
2022-10-28T10:27:37.852Z,1004.11
2022-10-28T10:28:37.862Z,1004.06
2022-10-28T10:29:37.846Z,1004.08
2022-10-28T10:30:37.845Z,1004.08
2022-10-28T10:31:37.807Z,1004.09
2022-10-28T10:32:37.809Z,1004.05
2022-10-28T10:33:37.793Z,1004.08
2022-10-28T10:34:37.789Z,1004.05
2022-10-28T10:35:37.766Z,1004.00
2022-10-28T10:36:37.770Z,1003.93
2022-10-28T10:37:37.745Z,1003.95
2022-10-28T10:38:37.727Z,1003.95
2022-10-28T10:39:37.742Z,1003.97
2022-10-28T10:40:37.732Z,1003.99
2022-10-28T10:41:37.724Z,1003.95
2022-10-28T10:42:46.516Z,1003.89
2022-10-28T10:43:38.675Z,1003.93
2022-10-28T10:44:37.674Z,1003.89
2022-10-28T10:45:37.652Z,1003.91
2022-10-28T10:46:37.678Z,1003.92
2022-10-28T10:47:37.639Z,1003.89
2022-10-28T10:48:37.628Z,1003.87
2022-10-28T10:49:37.626Z,1003.86
2022-10-28T10:50:37.603Z,1003.87
2022-10-28T10:51:40.154Z,1003.86
2022-10-28T10:52:37.727Z,1003.86
2022-10-28T10:53:37.591Z,1003.87
2022-10-28T10:54:37.568Z,1003.87
2022-10-28T10:55:37.562Z,1003.86
2022-10-28T10:56:37.539Z,1003.87
2022-10-28T10:57:37.528Z,1003.86
2022-10-28T10:58:37.555Z,1003.85
2022-10-28T10:59:37.505Z,1003.82
2022-10-28T11:00:37.513Z,1003.80
2022-10-28T11:01:37.617Z,1003.83
2022-10-28T11:02:37.634Z,1003.87
2022-10-28T11:03:37.490Z,1003.81
2022-10-28T11:04:37.473Z,1003.83
2022-10-28T11:05:38.539Z,1003.82
2022-10-28T11:06:37.427Z,1003.77
2022-10-28T11:07:37.430Z,1003.76
2022-10-28T11:08:37.399Z,1003.77
2022-10-28T11:09:37.439Z,1003.75
2022-10-28T11:10:37.421Z,1003.63
2022-10-28T11:11:37.385Z,1003.68
2022-10-28T11:12:37.367Z,1003.68
2022-10-28T11:13:40.034Z,1003.67
2022-10-28T11:14:37.374Z,1003.65
2022-10-28T11:15:37.355Z,1003.65
2022-10-28T11:16:37.316Z,1003.63
2022-10-28T11:17:37.313Z,1003.59
2022-10-28T11:18:37.296Z,1003.59
2022-10-28T11:19:37.291Z,1003.53
2022-10-28T11:20:37.287Z,1003.57
2022-10-28T11:21:37.295Z,1003.51
2022-10-28T11:22:37.250Z,1003.56
2022-10-28T11:23:37.237Z,1003.51
2022-10-28T11:24:37.232Z,1003.49
2022-10-28T11:25:37.229Z,1003.46
2022-10-28T11:26:37.220Z,1003.51
2022-10-28T11:27:37.253Z,1003.51
2022-10-28T11:28:37.184Z,1003.51
2022-10-28T11:29:37.171Z,1003.51
2022-10-28T11:30:37.165Z,1003.50
2022-10-28T11:31:37.151Z,1003.49
2022-10-28T11:32:44.062Z,1003.48
2022-10-28T11:33:38.812Z,1003.41
2022-10-28T11:34:37.123Z,1003.45
2022-10-28T11:35:37.107Z,1003.38
2022-10-28T11:36:37.098Z,1003.41
2022-10-28T11:37:37.107Z,1003.34
2022-10-28T11:38:38.373Z,1003.36
2022-10-28T11:39:37.099Z,1003.33
2022-10-28T11:40:37.052Z,1003.31
2022-10-28T11:41:37.056Z,1003.31
2022-10-28T11:42:37.037Z,1003.37
2022-10-28T11:43:37.061Z,1003.36
2022-10-28T11:44:37.079Z,1003.33
2022-10-28T11:45:36.992Z,1003.30
2022-10-28T11:46:37.006Z,1003.31
2022-10-28T11:47:36.973Z,1003.30
2022-10-28T11:48:36.989Z,1003.33
2022-10-28T11:49:36.963Z,1003.29
2022-10-28T11:50:36.947Z,1003.21
2022-10-28T11:51:36.935Z,1003.23
2022-10-28T11:52:41.174Z,1003.27
2022-10-28T11:53:36.909Z,1003.25
2022-10-28T11:54:36.919Z,1003.22
2022-10-28T11:55:36.889Z,1003.26
2022-10-28T11:56:36.891Z,1003.25
2022-10-28T11:57:36.871Z,1003.23
2022-10-28T11:58:36.864Z,1003.27
2022-10-28T11:59:36.892Z,1003.31
2022-10-28T12:00:36.868Z,1003.29
2022-10-28T12:01:37.037Z,1003.26
2022-10-28T12:02:36.885Z,1003.26
2022-10-28T12:03:36.805Z,1003.28
2022-10-28T12:04:36.830Z,1003.29
2022-10-28T12:05:36.811Z,1003.30
2022-10-28T12:06:36.794Z,1003.30
2022-10-28T12:07:36.760Z,1003.31
2022-10-28T12:08:36.747Z,1003.29
2022-10-28T12:09:36.739Z,1003.24
2022-10-28T12:10:36.775Z,1003.29
2022-10-28T12:11:36.724Z,1003.29
2022-10-28T12:12:38.477Z,1003.29
2022-10-28T12:13:36.704Z,1003.27
2022-10-28T12:14:36.703Z,1003.29
2022-10-28T12:15:36.699Z,1003.33
2022-10-28T12:16:36.686Z,1003.30
2022-10-28T12:17:36.683Z,1003.32
2022-10-28T12:18:36.650Z,1003.30
2022-10-28T12:19:36.648Z,1003.33
2022-10-28T12:20:36.623Z,1003.31
2022-10-28T12:21:36.790Z,1003.29
2022-10-28T12:22:36.599Z,1003.27
2022-10-28T12:23:36.595Z,1003.26
2022-10-28T12:24:36.683Z,1003.26
2022-10-28T12:25:36.584Z,1003.25
2022-10-28T12:26:36.589Z,1003.21
2022-10-28T12:27:36.556Z,1003.26
2022-10-28T12:28:36.551Z,1003.25
2022-10-28T12:29:36.522Z,1003.29
2022-10-28T12:30:36.521Z,1003.25
2022-10-28T12:31:36.540Z,1003.29
2022-10-28T12:32:36.511Z,1003.29
2022-10-28T12:33:36.498Z,1003.29
2022-10-28T12:35:36.474Z,1003.27
2022-10-28T12:36:36.467Z,1003.31
2022-10-28T12:37:36.460Z,1003.28
2022-10-28T12:38:36.430Z,1003.24
2022-10-28T12:39:36.477Z,1003.27
2022-10-28T12:40:36.440Z,1003.23
2022-10-28T12:41:36.453Z,1003.23
2022-10-28T12:42:36.399Z,1003.21
2022-10-28T12:43:36.382Z,1003.24
2022-10-28T12:44:36.375Z,1003.19
2022-10-28T12:45:36.380Z,1003.23
2022-10-28T12:46:36.365Z,1003.19
2022-10-28T12:47:39.049Z,1003.18
2022-10-28T12:48:37.338Z,1003.11
2022-10-28T12:49:36.320Z,1003.11
2022-10-28T12:50:36.349Z,1003.19
2022-10-28T12:51:36.337Z,1003.12
2022-10-28T12:52:36.311Z,1003.20
2022-10-28T12:53:36.272Z,1003.10
2022-10-28T12:54:36.286Z,1003.13
2022-10-28T12:55:36.266Z,1003.14
2022-10-28T12:56:36.455Z,1003.07
2022-10-28T12:57:36.239Z,1003.08
2022-10-28T12:58:36.236Z,1003.10
2022-10-28T12:59:36.231Z,1003.10
2022-10-28T13:00:36.227Z,1003.11
2022-10-28T13:01:36.291Z,1003.09
2022-10-28T13:02:36.293Z,1003.09
2022-10-28T13:03:36.194Z,1003.16
2022-10-28T13:04:36.199Z,1003.16
2022-10-28T13:05:36.184Z,1003.16
2022-10-28T13:07:36.143Z,1003.18
2022-10-28T13:08:36.145Z,1003.16
2022-10-28T13:09:38.891Z,1003.21
2022-10-28T13:10:36.099Z,1003.19
2022-10-28T13:11:36.104Z,1003.22
2022-10-28T13:12:36.075Z,1003.16
2022-10-28T13:13:36.119Z,1003.15
2022-10-28T13:14:36.054Z,1003.15
2022-10-28T13:15:36.045Z,1003.14
2022-10-28T13:16:36.045Z,1003.19
2022-10-28T13:17:36.066Z,1003.14
2022-10-28T13:18:36.008Z,1003.11
2022-10-28T13:19:36.019Z,1003.21
2022-10-28T13:20:35.995Z,1003.18
2022-10-28T13:21:35.978Z,1003.18
2022-10-28T13:22:35.992Z,1003.22
2022-10-28T13:23:35.977Z,1003.18
2022-10-28T13:24:35.964Z,1003.17
2022-10-28T13:25:35.961Z,1003.20
2022-10-28T13:26:36.027Z,1003.19
2022-10-28T13:28:35.910Z,1003.18
2022-10-28T13:29:35.925Z,1003.19
2022-10-28T13:30:35.886Z,1003.18
2022-10-28T13:31:35.877Z,1003.21
2022-10-28T13:32:38.593Z,1003.19
2022-10-28T13:33:35.854Z,1003.21
2022-10-28T13:34:35.888Z,1003.16
2022-10-28T13:35:35.856Z,1003.15
2022-10-28T13:36:35.818Z,1003.15
2022-10-28T13:37:35.824Z,1003.12
2022-10-28T13:38:35.822Z,1003.13
2022-10-28T13:39:35.792Z,1003.10
2022-10-28T13:40:35.800Z,1003.13
2022-10-28T13:41:35.790Z,1003.08
2022-10-28T13:42:35.774Z,1003.08
2022-10-28T13:43:35.779Z,1003.09
2022-10-28T13:44:35.741Z,1003.11
2022-10-28T13:45:35.741Z,1003.16
2022-10-28T13:46:35.720Z,1003.11
2022-10-28T13:47:35.709Z,1003.17
2022-10-28T13:48:35.712Z,1003.14
2022-10-28T13:49:35.708Z,1003.17
2022-10-28T13:50:35.673Z,1003.14
2022-10-28T13:51:35.719Z,1003.19
2022-10-28T13:52:35.687Z,1003.20
2022-10-28T13:53:35.642Z,1003.18
2022-10-28T13:54:35.654Z,1003.19
2022-10-28T13:55:37.601Z,1003.20
2022-10-28T13:56:35.733Z,1003.19
2022-10-28T13:57:35.593Z,1003.19
2022-10-28T13:58:35.589Z,1003.16
2022-10-28T13:59:35.584Z,1003.16
2022-10-28T14:00:35.587Z,1003.15
2022-10-28T14:01:35.797Z,1003.12
2022-10-28T14:02:36.529Z,1003.15
2022-10-28T14:03:35.695Z,1003.14
2022-10-28T14:04:35.529Z,1003.13
2022-10-28T14:05:35.559Z,1003.09
2022-10-28T14:06:35.577Z,1003.07
2022-10-28T14:07:35.532Z,1003.08
2022-10-28T14:08:35.487Z,1003.09
2022-10-28T14:09:35.477Z,1003.13
2022-10-28T14:10:35.491Z,1003.11
2022-10-28T14:11:35.450Z,1003.14
2022-10-28T14:12:35.453Z,1003.12
2022-10-28T14:13:35.434Z,1003.20
2022-10-28T14:14:35.479Z,1003.18
2022-10-28T14:15:35.424Z,1003.22
2022-10-28T14:16:35.400Z,1003.22
2022-10-28T14:17:35.404Z,1003.23
2022-10-28T14:18:43.489Z,1003.22
2022-10-28T14:19:36.363Z,1003.24
2022-10-28T14:20:35.390Z,1003.26
2022-10-28T14:21:35.397Z,1003.26
2022-10-28T14:22:35.434Z,1003.27
2022-10-28T14:23:35.350Z,1003.26
2022-10-28T14:24:35.315Z,1003.22
2022-10-28T14:25:35.297Z,1003.25
2022-10-28T14:26:35.299Z,1003.22
2022-10-28T14:27:35.282Z,1003.25
2022-10-28T14:28:35.274Z,1003.23
2022-10-28T14:29:35.282Z,1003.23
2022-10-28T14:30:35.261Z,1003.23
2022-10-28T14:31:35.233Z,1003.21
2022-10-28T14:32:35.244Z,1003.22
2022-10-28T14:33:35.218Z,1003.21
2022-10-28T14:34:35.203Z,1003.27
2022-10-28T14:35:35.199Z,1003.30
2022-10-28T14:36:35.181Z,1003.28
2022-10-28T14:37:35.168Z,1003.31
2022-10-28T14:38:35.183Z,1003.33
2022-10-28T14:39:35.169Z,1003.32
2022-10-28T14:40:35.136Z,1003.32
2022-10-28T14:41:35.281Z,1003.37
2022-10-28T14:42:35.117Z,1003.34
2022-10-28T14:43:35.107Z,1003.35
2022-10-28T14:44:35.097Z,1003.37
2022-10-28T14:45:35.076Z,1003.35
2022-10-28T14:46:35.099Z,1003.34
2022-10-28T14:47:35.078Z,1003.36
2022-10-28T14:48:35.053Z,1003.36
2022-10-28T14:49:35.043Z,1003.38
2022-10-28T14:50:35.026Z,1003.38
2022-10-28T14:51:35.033Z,1003.40
2022-10-28T14:52:35.004Z,1003.41
2022-10-28T14:53:35.009Z,1003.44
2022-10-28T14:54:39.669Z,1003.46
2022-10-28T14:55:35.996Z,1003.45
2022-10-28T14:56:34.972Z,1003.50
2022-10-28T14:57:34.979Z,1003.50
2022-10-28T14:58:34.946Z,1003.46
2022-10-28T14:59:34.948Z,1003.49
2022-10-28T15:00:34.910Z,1003.48
2022-10-28T15:01:35.101Z,1003.37
2022-10-28T15:02:35.144Z,1003.44
2022-10-28T15:03:34.890Z,1003.45
2022-10-28T15:04:34.919Z,1003.42
2022-10-28T15:05:34.891Z,1003.47
2022-10-28T15:06:34.850Z,1003.47
2022-10-28T15:07:37.775Z,1003.44
2022-10-28T15:08:34.835Z,1003.51
2022-10-28T15:09:34.891Z,1003.54
2022-10-28T15:10:34.813Z,1003.56
2022-10-28T15:11:34.811Z,1003.57
2022-10-28T15:12:34.786Z,1003.59
2022-10-28T15:13:34.769Z,1003.63
2022-10-28T15:14:34.766Z,1003.71
2022-10-28T15:15:34.770Z,1003.75
2022-10-28T15:16:34.742Z,1003.83
2022-10-28T15:17:34.776Z,1003.93
2022-10-28T15:18:34.727Z,1003.98
2022-10-28T15:19:34.722Z,1004.09
2022-10-28T15:20:34.692Z,1004.12
2022-10-28T15:21:34.711Z,1004.14
2022-10-28T15:22:34.675Z,1004.17
2022-10-28T15:23:34.781Z,1004.14
2022-10-28T15:24:34.661Z,1004.14
2022-10-28T15:25:34.658Z,1004.19
2022-10-28T15:26:34.648Z,1004.22
2022-10-28T15:27:34.650Z,1004.24
2022-10-28T15:28:34.624Z,1004.30
2022-10-28T15:29:34.618Z,1004.29
2022-10-28T15:30:34.585Z,1004.25
2022-10-28T15:31:34.585Z,1004.22
2022-10-28T15:32:34.564Z,1004.22
2022-10-28T15:33:34.565Z,1004.17
2022-10-28T15:34:34.558Z,1004.19
2022-10-28T15:35:34.584Z,1004.21
2022-10-28T15:36:34.707Z,1004.17
2022-10-28T15:37:34.511Z,1004.17
2022-10-28T15:38:34.507Z,1004.18
2022-10-28T15:39:34.494Z,1004.18
2022-10-28T15:40:34.479Z,1004.23
2022-10-28T15:41:34.503Z,1004.21
2022-10-28T15:42:34.496Z,1004.20
2022-10-28T15:43:34.462Z,1004.19
2022-10-28T15:44:34.435Z,1004.21
2022-10-28T15:45:39.690Z,1004.23
2022-10-28T15:46:35.448Z,1004.20
2022-10-28T15:47:34.404Z,1004.25
2022-10-28T15:48:34.416Z,1004.29
2022-10-28T15:49:34.386Z,1004.33
2022-10-28T15:50:34.398Z,1004.33
2022-10-28T15:51:34.363Z,1004.36
2022-10-28T15:52:34.366Z,1004.37
2022-10-28T15:53:34.332Z,1004.39
2022-10-28T15:54:34.344Z,1004.41
2022-10-28T15:55:41.591Z,1004.39
2022-10-28T15:56:35.304Z,1004.39
2022-10-28T15:57:34.297Z,1004.45
2022-10-28T15:58:34.314Z,1004.47
2022-10-28T15:59:34.290Z,1004.49
2022-10-28T16:00:34.262Z,1004.50
2022-10-28T16:01:34.417Z,1004.48
2022-10-28T16:02:34.496Z,1004.43
2022-10-28T16:03:34.237Z,1004.49
2022-10-28T16:04:34.256Z,1004.46
2022-10-28T16:05:34.201Z,1004.53
2022-10-28T16:06:34.218Z,1004.50
2022-10-28T16:07:34.188Z,1004.49
2022-10-28T16:08:34.175Z,1004.49
2022-10-28T16:09:34.175Z,1004.51
2022-10-28T16:10:34.161Z,1004.50
2022-10-28T16:11:34.166Z,1004.50
2022-10-28T16:12:34.131Z,1004.57
2022-10-28T16:13:34.142Z,1004.59
2022-10-28T16:14:34.134Z,1004.60
2022-10-28T16:15:34.227Z,1004.62
2022-10-28T16:16:34.097Z,1004.62
2022-10-28T16:17:34.076Z,1004.69
2022-10-28T16:18:34.062Z,1004.72
2022-10-28T16:19:34.073Z,1004.74
2022-10-28T16:20:34.084Z,1004.78
2022-10-28T16:21:34.028Z,1004.76
2022-10-28T16:22:34.038Z,1004.73
2022-10-28T16:23:34.026Z,1004.76
2022-10-28T16:24:33.992Z,1004.77
2022-10-28T16:25:33.986Z,1004.77
2022-10-28T16:26:33.990Z,1004.73
2022-10-28T16:27:33.980Z,1004.71
2022-10-28T16:28:33.973Z,1004.76
2022-10-28T16:29:33.941Z,1004.77
2022-10-28T16:30:33.933Z,1004.72
2022-10-28T16:31:33.930Z,1004.79
2022-10-28T16:32:35.322Z,1004.77
2022-10-28T16:33:33.918Z,1004.78
2022-10-28T16:34:33.902Z,1004.71
2022-10-28T16:35:33.870Z,1004.75
2022-10-28T16:36:33.865Z,1004.73
2022-10-28T16:37:33.849Z,1004.73
2022-10-28T16:38:33.853Z,1004.71
2022-10-28T16:39:33.831Z,1004.73